Share

Beja, Tunisia

Jendouba (DTTN) Elev 472 ft | 36.48 °N, 8.80 °E | Change Station

Current weather conditions updated 9 minutes ago

Partly Cloudy
Partly Cloudy
48 °F
Feels Like 48 °F
N
4
Wind Variable Wind from SSW
Sunrise 5:45 AM
Sunset 7:00 PM
Moon Waning Gibbous

Tomorrow is forecast to be Much Warmer than today.

Pressure 29.89 in
Visibility 5.0 miles
Clouds Few 2000 ft
Dew Point 46 °F
Humidity 93%
Rainfall 0.00 in
Snow Depth Not available.
UV 0 out of 16
Pollen Not available.
Air Quality Not available.
Flu Activity Not available.
METAR DTTN 182200Z 21003KT 8000 FEW020 09/08 Q1012

More Conditions Fewer Conditions

Pressure 29.89 in
Visibility 5.0 miles
Clouds Few 2000 ft
Dew Point 46 °F
Humidity 93%
Rainfall 0.00 in
Snow Depth Not available.
UV 0 out of 16
Pollen Not available.
Air Quality Not available.
Flu Activity Not available.
METAR DTTN 182200Z 21003KT 8000 FEW020 09/08 Q1012

More Conditions Fewer Conditions

10-Day Weather Forecast

Almanac

Astronomy

Apr. 18, 2014 Rise Set
Actual Time 5:45 AM CET 7:00 PM CET
Civil Twilight 5:18 AM CET 7:27 PM CET
Nautical Twilight 4:46 AM CET 7:59 PM CET
Astronomical Twilight 4:13 AM CET 8:32 PM CET
Moon 10:25 PM CET 7:56 AM CET
Length of Visible Light 14h 08m
Length of Day
13h 14m
Tomorrow will be 2m 12s longer.
Waning Gibbous, 85% of the Moon is Illuminated
Today
Waning Gibbous
Apr 22
Last Quarter
Apr 29
New
May 6
First Quarter
May 14
Full

Today's Extremes

Country Highs Country Lows

Community

  • Spring Chickadee
    Spring Chickadee
  • What's for Lunch?
    What's for Lunch?
  • SUNRISE THROUGH THE TREES.
    SUNRISE THROUGH THE TREES.
  • Dog Wood Blossoms
    Dog Wood Blossoms
  • Morning Light
    Morning Light

WunderPhotos

Upload Photos

1,702,520 photos uploaded!

WunderBlogs® & News

Nearby

Snow Depth

Not available.

Coastal Water Temperatures

Place Temperature
No Stations Reporting

Earthquake Activity

City Distance Mag. Time & Date
No recent earthquake activity has been reported nearby.
Minimum magnitude displayed is 2.5.

Nearby Weather Stations

There are no personal weather stations in this area.

What do you think?

We're not finished. Please let us know what you like, what you don't like, and what you are still missing.